Time;durP1;ratioP1;P1;durP2;ratioP2;P2;SDS_P1;SDS_P2;PMS_P1;PMS_P2;Temp;Humidity;BMP_temperature;BMP_pressure;BME280_temperature;BME280_humidity;BME280_pressure;Samples;Min_cycle;Max_cycle;Signal;HPM_P1;HPM_P2
2022/02/28 00:01:22;;;;;;;21.63;8.20;;;;;;;;;;5078006;28;20043;-46
2022/02/28 00:03:49;;;;;;;21.23;9.23;;;;;;;;;;5088287;28;20043;-47
2022/02/28 00:06:15;;;;;;;17.90;8.43;;;;;;;;;;5085913;28;20499;-47
2022/02/28 00:08:41;;;;;;;22.88;8.77;;;;;;;;;;5074311;28;20056;-46
2022/02/28 00:11:07;;;;;;;22.20;9.25;;;;;;;;;;5075547;28;20111;-47
2022/02/28 00:13:33;;;;;;;18.65;8.32;;;;;;;;;;5073873;28;20112;-52
2022/02/28 00:16:00;;;;;;;21.05;9.30;;;;;;;;;;5081416;28;20059;-47
2022/02/28 00:18:25;;;;;;;22.63;9.90;;;;;;;;;;5081715;28;20487;-49
2022/02/28 00:20:52;;;;;;;21.52;8.93;;;;;;;;;;5082844;28;20108;-53
2022/02/28 00:23:17;;;;;;;21.13;9.32;;;;;;;;;;5090108;28;20016;-47
2022/02/28 00:25:43;;;;;;;23.13;9.52;;;;;;;;;;5086873;28;20036;-47
2022/02/28 00:28:10;;;;;;;24.27;9.93;;;;;;;;;;5076545;28;20127;-47
2022/02/28 00:30:36;;;;;;;21.83;9.20;;;;;;;;;;5086030;28;20032;-47
2022/02/28 00:33:03;;;;;;;25.52;10.25;;;;;;;;;;5075058;28;20030;-47
2022/02/28 00:35:29;;;;;;;23.27;9.60;;;;;;;;;;5084733;28;20067;-46
2022/02/28 00:37:55;;;;;;;23.63;9.52;;;;;;;;;;5076233;28;20107;-46
2022/02/28 00:40:21;;;;;;;20.63;8.52;;;;;;;;;;5074065;28;20029;-47
2022/02/28 00:42:47;;;;;;;23.55;9.50;;;;;;;;;;5084477;28;20043;-47
2022/02/28 00:45:13;;;;;;;22.25;9.65;;;;;;;;;;5087287;28;20028;-47
2022/02/28 00:47:40;;;;;;;22.35;9.00;;;;;;;;;;5085960;28;20074;-52
2022/02/28 00:50:07;;;;;;;21.13;9.15;;;;;;;;;;5078518;28;20127;-49
2022/02/28 00:52:33;;;;;;;21.45;9.23;;;;;;;;;;5077555;28;20095;-48
2022/02/28 00:54:59;;;;;;;25.23;9.32;;;;;;;;;;5079463;28;20418;-47
2022/02/28 00:57:25;;;;;;;24.02;10.25;;;;;;;;;;5095446;28;20375;-50
2022/02/28 00:59:51;;;;;;;22.50;10.10;;;;;;;;;;5093494;28;20033;-46
2022/02/28 01:02:17;;;;;;;21.85;9.43;;;;;;;;;;5088492;28;20016;-47
2022/02/28 01:04:43;;;;;;;24.27;9.68;;;;;;;;;;5091678;28;20034;-47
2022/02/28 01:07:09;;;;;;;25.67;9.40;;;;;;;;;;5088386;28;20041;-46
2022/02/28 01:09:35;;;;;;;21.13;8.98;;;;;;;;;;5088261;28;20039;-48
2022/02/28 01:12:03;;;;;;;19.60;8.75;;;;;;;;;;5080022;28;20107;-47
2022/02/28 01:14:29;;;;;;;20.35;9.45;;;;;;;;;;5081464;28;20028;-47
2022/02/28 01:16:56;;;;;;;20.88;9.50;;;;;;;;;;5088335;28;20055;-48
2022/02/28 01:19:22;;;;;;;21.58;8.77;;;;;;;;;;5080068;28;20048;-47
2022/02/28 01:21:48;;;;;;;24.58;9.23;;;;;;;;;;5089162;28;20349;-51
2022/02/28 01:24:14;;;;;;;24.60;8.82;;;;;;;;;;5081118;28;20032;-51
2022/02/28 01:26:41;;;;;;;27.73;10.30;;;;;;;;;;5078567;28;20300;-52
2022/02/28 01:29:07;;;;;;;22.95;9.45;;;;;;;;;;5079633;28;20118;-48
2022/02/28 01:31:33;;;;;;;29.40;10.25;;;;;;;;;;5087549;28;20115;-49
2022/02/28 01:33:59;;;;;;;19.63;9.10;;;;;;;;;;5086963;28;20037;-49
2022/02/28 01:36:25;;;;;;;24.25;11.32;;;;;;;;;;5085411;28;20034;-47
2022/02/28 01:38:51;;;;;;;20.77;9.50;;;;;;;;;;5090153;28;20118;-47
2022/02/28 01:41:18;;;;;;;27.35;10.43;;;;;;;;;;5084256;28;20069;-48
2022/02/28 01:43:44;;;;;;;21.40;9.48;;;;;;;;;;5078791;28;20468;-47
2022/02/28 01:46:10;;;;;;;25.05;9.10;;;;;;;;;;5082021;28;20016;-47
2022/02/28 01:48:36;;;;;;;21.30;9.07;;;;;;;;;;5077820;28;20391;-48
2022/02/28 01:51:02;;;;;;;26.90;10.80;;;;;;;;;;5087301;28;20028;-46
2022/02/28 01:53:28;;;;;;;26.60;10.88;;;;;;;;;;5081576;28;20115;-47
2022/02/28 01:55:54;;;;;;;28.00;10.00;;;;;;;;;;5091109;28;20032;-48
2022/02/28 01:58:19;;;;;;;24.35;10.40;;;;;;;;;;5086695;28;20150;-51
2022/02/28 02:00:46;;;;;;;32.25;12.32;;;;;;;;;;5092297;28;20460;-48
2022/02/28 02:03:11;;;;;;;23.50;10.48;;;;;;;;;;5082198;28;20032;-48
2022/02/28 02:05:37;;;;;;;28.35;10.77;;;;;;;;;;5091513;28;20028;-47
2022/02/28 02:08:08;;;;;;;26.85;11.32;;;;;;;;;;5075749;28;20119;-47
2022/02/28 02:10:34;;;;;;;29.42;11.00;;;;;;;;;;5082169;28;20042;-47
2022/02/28 02:13:00;;;;;;;24.55;9.98;;;;;;;;;;5084552;28;20043;-47
2022/02/28 02:15:26;;;;;;;30.40;11.73;;;;;;;;;;5075178;28;20029;-47
2022/02/28 02:17:54;;;;;;;25.02;10.75;;;;;;;;;;5089744;28;20082;-47
2022/02/28 02:20:20;;;;;;;29.42;11.30;;;;;;;;;;5094375;28;20380;-46
2022/02/28 02:22:56;;;;;;;32.30;11.90;;;;;;;;;;5090387;28;20019;-47
2022/02/28 02:25:22;;;;;;;29.60;11.98;;;;;;;;;;5080844;28;20024;-47
2022/02/28 02:27:48;;;;;;;29.80;10.70;;;;;;;;;;5078649;28;20106;-48
2022/02/28 02:30:14;;;;;;;36.42;13.05;;;;;;;;;;5086577;28;20450;-47
2022/02/28 02:32:41;;;;;;;29.13;11.73;;;;;;;;;;5083576;28;20052;-49
2022/02/28 02:35:08;;;;;;;29.95;11.98;;;;;;;;;;5088308;28;20032;-51
2022/02/28 02:37:34;;;;;;;32.28;11.90;;;;;;;;;;5091158;28;20425;-47
2022/02/28 02:40:00;;;;;;;28.25;12.10;;;;;;;;;;5088068;28;20016;-47
2022/02/28 02:42:26;;;;;;;28.27;12.20;;;;;;;;;;5076383;28;20504;-46
2022/02/28 02:44:52;;;;;;;35.92;12.68;;;;;;;;;;5089632;28;20043;-47
2022/02/28 02:47:17;;;;;;;28.83;11.15;;;;;;;;;;5080402;28;20177;-48
2022/02/28 02:49:43;;;;;;;39.33;12.52;;;;;;;;;;5090039;28;20054;-48
2022/02/28 02:52:09;;;;;;;37.05;12.68;;;;;;;;;;5077674;28;20048;-49
2022/02/28 02:54:35;;;;;;;33.35;12.35;;;;;;;;;;5088863;28;20099;-49
2022/02/28 02:57:01;;;;;;;34.80;12.23;;;;;;;;;;5078302;28;20053;-48
2022/02/28 02:59:27;;;;;;;37.47;12.80;;;;;;;;;;5081972;28;20012;-47
2022/02/28 03:01:53;;;;;;;31.77;13.00;;;;;;;;;;5081753;28;20048;-47
2022/02/28 03:04:19;;;;;;;34.72;12.15;;;;;;;;;;5081741;28;20518;-47
2022/02/28 03:06:45;;;;;;;36.25;12.35;;;;;;;;;;5088389;28;20028;-51
2022/02/28 03:09:15;;;;;;;36.05;12.93;;;;;;;;;;5082786;28;20040;-47
2022/02/28 03:11:41;;;;;;;37.95;13.77;;;;;;;;;;5075651;28;20037;-50
2022/02/28 03:14:07;;;;;;;37.22;12.38;;;;;;;;;;5084580;28;20085;-47
2022/02/28 03:16:33;;;;;;;39.05;14.13;;;;;;;;;;5078493;28;20116;-50
2022/02/28 03:18:59;;;;;;;31.73;12.95;;;;;;;;;;5079927;28;20082;-47
2022/02/28 03:21:25;;;;;;;40.08;14.10;;;;;;;;;;5089818;28;20395;-50
2022/02/28 03:23:51;;;;;;;36.65;13.50;;;;;;;;;;5088248;28;20024;-47
2022/02/28 03:26:17;;;;;;;42.90;15.32;;;;;;;;;;5088034;28;20109;-48
2022/02/28 03:28:43;;;;;;;41.08;14.90;;;;;;;;;;5083303;28;20075;-46
2022/02/28 03:31:09;;;;;;;40.97;14.18;;;;;;;;;;5079295;28;20020;-46
2022/02/28 03:33:35;;;;;;;38.47;14.40;;;;;;;;;;5073280;28;20043;-46
2022/02/28 03:36:02;;;;;;;41.42;13.88;;;;;;;;;;5084715;28;20028;-46
2022/02/28 03:38:28;;;;;;;36.13;13.23;;;;;;;;;;5080631;28;20027;-46
2022/02/28 03:40:54;;;;;;;37.30;14.80;;;;;;;;;;5082753;28;20020;-49
2022/02/28 03:43:20;;;;;;;37.30;13.25;;;;;;;;;;5088422;28;20093;-46
2022/02/28 03:45:46;;;;;;;35.78;12.60;;;;;;;;;;5081271;28;20115;-48
2022/02/28 03:48:12;;;;;;;32.00;12.70;;;;;;;;;;5074425;28;20455;-48
2022/02/28 03:50:38;;;;;;;38.80;13.65;;;;;;;;;;5084285;28;20396;-48
2022/02/28 03:53:04;;;;;;;37.22;14.55;;;;;;;;;;5079020;28;20048;-45
2022/02/28 03:55:30;;;;;;;32.97;12.23;;;;;;;;;;5091939;28;20055;-47
2022/02/28 03:57:56;;;;;;;45.17;13.27;;;;;;;;;;5074407;28;20465;-46
2022/02/28 04:00:22;;;;;;;35.95;12.65;;;;;;;;;;5085945;28;20128;-45
2022/02/28 04:02:48;;;;;;;34.92;12.80;;;;;;;;;;5088984;28;20047;-46
2022/02/28 04:05:14;;;;;;;37.55;12.77;;;;;;;;;;5089834;28;20028;-46
2022/02/28 04:07:41;;;;;;;41.78;14.35;;;;;;;;;;5077478;28;20484;-47
2022/02/28 04:10:07;;;;;;;37.38;13.35;;;;;;;;;;5087849;28;20487;-45
2022/02/28 04:12:33;;;;;;;34.63;12.48;;;;;;;;;;5081878;28;20105;-48
2022/02/28 04:14:59;;;;;;;37.05;12.57;;;;;;;;;;5087229;28;20116;-49
2022/02/28 04:17:25;;;;;;;32.45;11.32;;;;;;;;;;5077101;28;20108;-47
2022/02/28 04:19:51;;;;;;;29.27;11.55;;;;;;;;;;5091072;28;20062;-46
2022/02/28 04:22:17;;;;;;;37.00;12.48;;;;;;;;;;5082731;28;20024;-51
2022/02/28 04:24:43;;;;;;;32.70;11.75;;;;;;;;;;5084632;28;20119;-46
2022/02/28 04:27:09;;;;;;;40.17;12.77;;;;;;;;;;5077292;28;20032;-46
2022/02/28 04:29:36;;;;;;;34.92;12.52;;;;;;;;;;5080816;28;20031;-47
2022/02/28 04:32:02;;;;;;;33.55;11.85;;;;;;;;;;5073175;28;20024;-46
2022/02/28 04:34:28;;;;;;;36.17;12.60;;;;;;;;;;5089419;28;20036;-47
2022/02/28 04:36:54;;;;;;;28.45;10.80;;;;;;;;;;5075796;28;20079;-46
2022/02/28 04:39:20;;;;;;;32.50;10.90;;;;;;;;;;5084919;28;20024;-45
2022/02/28 04:41:46;;;;;;;27.95;10.63;;;;;;;;;;5077747;28;20439;-46
2022/02/28 04:44:12;;;;;;;33.15;11.73;;;;;;;;;;5078395;28;20040;-46
2022/02/28 04:46:38;;;;;;;25.23;10.90;;;;;;;;;;5084120;28;20036;-46
2022/02/28 04:49:04;;;;;;;27.58;9.93;;;;;;;;;;5080777;28;20043;-47
2022/02/28 04:51:30;;;;;;;34.28;11.95;;;;;;;;;;5079251;28;20064;-50
2022/02/28 04:53:56;;;;;;;29.58;11.35;;;;;;;;;;5085249;28;20020;-49
2022/02/28 04:56:22;;;;;;;31.52;11.20;;;;;;;;;;5071297;28;20032;-46
2022/02/28 04:58:48;;;;;;;29.55;10.50;;;;;;;;;;5082055;28;20020;-47
2022/02/28 05:01:14;;;;;;;25.83;10.98;;;;;;;;;;5074526;28;20670;-47
2022/02/28 05:03:40;;;;;;;28.67;11.30;;;;;;;;;;5074992;28;20025;-47
2022/02/28 05:06:06;;;;;;;27.13;10.68;;;;;;;;;;5074412;28;20044;-46
2022/02/28 05:08:32;;;;;;;30.38;11.48;;;;;;;;;;5078352;28;20036;-46
2022/02/28 05:10:58;;;;;;;28.38;12.02;;;;;;;;;;5076885;28;20086;-47
2022/02/28 05:13:24;;;;;;;26.77;11.20;;;;;;;;;;5087767;28;20036;-46
2022/02/28 05:15:49;;;;;;;24.27;9.77;;;;;;;;;;5090148;28;20024;-47
2022/02/28 05:18:15;;;;;;;22.52;9.15;;;;;;;;;;5083231;28;20032;-46
2022/02/28 05:20:41;;;;;;;28.40;11.20;;;;;;;;;;5079419;28;20107;-47
2022/02/28 05:23:07;;;;;;;23.73;10.35;;;;;;;;;;5083968;28;20408;-47
2022/02/28 05:25:33;;;;;;;35.05;12.30;;;;;;;;;;5090621;28;20050;-46
2022/02/28 05:27:59;;;;;;;26.55;10.60;;;;;;;;;;5078118;28;20077;-47
2022/02/28 05:30:25;;;;;;;27.45;11.90;;;;;;;;;;5083402;28;20023;-46
2022/02/28 05:32:51;;;;;;;24.88;10.15;;;;;;;;;;5080029;28;20469;-46
2022/02/28 05:35:17;;;;;;;24.48;9.25;;;;;;;;;;5085961;28;20392;-48
2022/02/28 05:37:43;;;;;;;22.92;9.55;;;;;;;;;;5084511;28;20055;-46
2022/02/28 05:40:10;;;;;;;25.63;8.55;;;;;;;;;;5074300;28;20167;-46
2022/02/28 05:42:37;;;;;;;22.52;9.85;;;;;;;;;;5079678;28;20030;-45
2022/02/28 05:45:04;;;;;;;24.75;8.98;;;;;;;;;;5074656;28;20486;-47
2022/02/28 05:47:30;;;;;;;29.13;9.65;;;;;;;;;;5085159;28;20039;-46
2022/02/28 05:49:56;;;;;;;27.23;9.10;;;;;;;;;;5081991;28;20020;-46
2022/02/28 05:52:22;;;;;;;22.40;10.65;;;;;;;;;;5080074;28;20152;-49
2022/02/28 05:54:48;;;;;;;21.95;9.15;;;;;;;;;;5081300;28;20510;-48
2022/02/28 05:57:14;;;;;;;23.25;8.25;;;;;;;;;;5080693;28;20454;-46
2022/02/28 05:59:40;;;;;;;21.45;9.27;;;;;;;;;;5083499;28;20024;-52
2022/02/28 06:02:06;;;;;;;23.92;9.32;;;;;;;;;;5076740;28;20407;-49
2022/02/28 06:04:32;;;;;;;22.30;9.15;;;;;;;;;;5089640;28;20044;-47
2022/02/28 06:06:58;;;;;;;25.90;9.38;;;;;;;;;;5087342;28;20059;-46
2022/02/28 06:09:24;;;;;;;26.27;9.40;;;;;;;;;;5088135;28;20828;-46
2022/02/28 06:11:50;;;;;;;22.30;9.02;;;;;;;;;;5087817;28;20031;-46
2022/02/28 06:14:17;;;;;;;24.67;9.68;;;;;;;;;;5086914;28;20059;-47
2022/02/28 06:16:43;;;;;;;23.70;9.73;;;;;;;;;;5093333;28;20502;-48
2022/02/28 06:19:09;;;;;;;23.38;9.25;;;;;;;;;;5089453;28;20025;-46
2022/02/28 06:21:35;;;;;;;25.95;9.52;;;;;;;;;;5085016;28;20036;-47
2022/02/28 06:24:01;;;;;;;21.65;9.20;;;;;;;;;;5093553;28;20053;-51
2022/02/28 06:26:27;;;;;;;22.48;9.98;;;;;;;;;;5087010;28;20531;-52
2022/02/28 06:28:53;;;;;;;27.20;9.68;;;;;;;;;;5086654;28;20024;-46
2022/02/28 06:31:20;;;;;;;24.45;10.25;;;;;;;;;;5079965;28;20020;-47
2022/02/28 06:33:46;;;;;;;26.88;9.60;;;;;;;;;;5072889;28;20032;-51
2022/02/28 06:36:12;;;;;;;23.67;9.32;;;;;;;;;;5083763;28;20028;-47
2022/02/28 06:38:38;;;;;;;27.10;10.13;;;;;;;;;;5078121;28;20032;-47
2022/02/28 06:41:05;;;;;;;26.45;11.13;;;;;;;;;;5092267;28;20099;-47
2022/02/28 06:43:31;;;;;;;24.05;9.35;;;;;;;;;;5092794;28;20024;-47
2022/02/28 06:45:57;;;;;;;22.27;10.57;;;;;;;;;;5093950;28;20483;-47
2022/02/28 06:48:23;;;;;;;21.40;10.13;;;;;;;;;;5082522;28;20039;-47
2022/02/28 06:50:50;;;;;;;30.17;10.40;;;;;;;;;;5085802;28;20028;-51
2022/02/28 06:53:18;;;;;;;23.85;9.18;;;;;;;;;;5090390;28;20430;-47
2022/02/28 06:55:45;;;;;;;29.08;11.35;;;;;;;;;;5091600;28;20024;-49
2022/02/28 06:58:11;;;;;;;21.13;9.85;;;;;;;;;;5090155;28;20474;-48
2022/02/28 07:00:37;;;;;;;21.08;9.57;;;;;;;;;;5083326;28;20028;-47
2022/02/28 07:03:03;;;;;;;25.27;11.38;;;;;;;;;;5085462;28;20136;-48
2022/02/28 07:05:30;;;;;;;26.52;11.05;;;;;;;;;;5092114;28;20030;-47
2022/02/28 07:07:56;;;;;;;24.98;11.80;;;;;;;;;;5093034;28;20499;-48
2022/02/28 07:10:23;;;;;;;19.58;9.45;;;;;;;;;;5093003;28;20024;-47
2022/02/28 07:12:49;;;;;;;22.77;9.77;;;;;;;;;;5086566;28;20024;-48
2022/02/28 07:15:15;;;;;;;24.88;9.50;;;;;;;;;;5092683;28;20103;-47
2022/02/28 07:17:41;;;;;;;26.85;10.45;;;;;;;;;;5091886;28;20511;-47
2022/02/28 07:20:07;;;;;;;22.55;10.02;;;;;;;;;;5090090;28;20525;-50
2022/02/28 07:22:33;;;;;;;23.25;10.35;;;;;;;;;;5087355;28;20181;-47
2022/02/28 07:24:59;;;;;;;25.70;10.10;;;;;;;;;;5085563;28;20107;-47
2022/02/28 07:27:25;;;;;;;24.27;9.88;;;;;;;;;;5089640;28;20032;-47
2022/02/28 07:29:51;;;;;;;23.75;10.23;;;;;;;;;;5082920;28;20032;-47
2022/02/28 07:32:17;;;;;;;21.75;9.45;;;;;;;;;;5090290;28;20119;-47
2022/02/28 07:34:43;;;;;;;19.98;9.68;;;;;;;;;;5085037;28;20025;-50
2022/02/28 07:37:09;;;;;;;23.85;10.15;;;;;;;;;;5086567;28;20017;-49
2022/02/28 07:39:35;;;;;;;23.58;8.85;;;;;;;;;;5090188;28;20047;-47
2022/02/28 07:42:01;;;;;;;24.17;9.80;;;;;;;;;;5092027;28;20028;-47
2022/02/28 07:44:29;;;;;;;26.00;11.35;;;;;;;;;;5092459;28;20047;-48
2022/02/28 07:46:55;;;;;;;28.38;10.63;;;;;;;;;;5081870;28;20511;-47
2022/02/28 07:49:22;;;;;;;24.15;11.13;;;;;;;;;;5081586;28;20051;-51
2022/02/28 07:51:48;;;;;;;27.85;10.95;;;;;;;;;;5073882;28;20041;-50
2022/02/28 07:54:14;;;;;;;20.27;9.63;;;;;;;;;;5090701;28;20036;-47
2022/02/28 07:56:40;;;;;;;25.38;10.73;;;;;;;;;;5087797;28;20027;-51
2022/02/28 07:59:06;;;;;;;24.65;9.38;;;;;;;;;;5091159;28;20158;-49
2022/02/28 08:01:32;;;;;;;26.33;10.57;;;;;;;;;;5075642;28;20102;-49
2022/02/28 08:03:59;;;;;;;19.35;8.73;;;;;;;;;;5087325;28;20032;-47
2022/02/28 08:06:25;;;;;;;24.23;11.15;;;;;;;;;;5087398;28;20035;-52
2022/02/28 08:08:51;;;;;;;21.95;9.98;;;;;;;;;;5088336;28;20020;-52
2022/02/28 08:11:17;;;;;;;30.80;11.55;;;;;;;;;;5090137;28;20490;-51
2022/02/28 08:13:43;;;;;;;27.08;10.65;;;;;;;;;;5089719;28;20024;-47
2022/02/28 08:16:09;;;;;;;23.73;9.77;;;;;;;;;;5087231;28;20037;-48
2022/02/28 08:18:35;;;;;;;24.90;10.98;;;;;;;;;;5079068;28;20527;-47
2022/02/28 08:21:01;;;;;;;29.15;11.40;;;;;;;;;;5083804;28;20122;-50
2022/02/28 08:23:27;;;;;;;27.35;11.25;;;;;;;;;;5092056;28;20026;-47
2022/02/28 08:25:53;;;;;;;27.83;11.27;;;;;;;;;;5091719;28;20128;-47
2022/02/28 08:28:19;;;;;;;25.77;10.48;;;;;;;;;;5089954;28;20028;-49
2022/02/28 08:30:45;;;;;;;26.73;10.30;;;;;;;;;;5075828;28;20036;-49
2022/02/28 08:33:11;;;;;;;28.15;10.48;;;;;;;;;;5091372;28;20031;-47
2022/02/28 08:35:37;;;;;;;27.73;11.43;;;;;;;;;;5091471;28;20115;-48
2022/02/28 08:38:04;;;;;;;23.30;10.55;;;;;;;;;;5082189;28;20028;-48
2022/02/28 08:40:30;;;;;;;26.33;11.00;;;;;;;;;;5083081;28;20488;-50
2022/02/28 08:42:56;;;;;;;27.73;11.70;;;;;;;;;;5085625;28;20055;-48
2022/02/28 08:45:22;;;;;;;32.55;12.25;;;;;;;;;;5089363;28;20060;-47
2022/02/28 08:47:48;;;;;;;26.02;12.00;;;;;;;;;;5090924;28;20032;-48
2022/02/28 08:50:16;;;;;;;27.17;11.82;;;;;;;;;;5090467;28;20468;-49
2022/02/28 08:52:42;;;;;;;29.88;11.82;;;;;;;;;;5089866;28;20048;-48
2022/02/28 08:55:08;;;;;;;26.35;11.63;;;;;;;;;;5084431;28;20090;-50
2022/02/28 08:57:36;;;;;;;34.35;13.48;;;;;;;;;;5088749;28;20028;-48
2022/02/28 09:00:02;;;;;;;32.20;12.57;;;;;;;;;;5086866;28;20032;-47
2022/02/28 09:02:28;;;;;;;28.25;12.23;;;;;;;;;;5083220;28;20111;-47
2022/02/28 09:04:54;;;;;;;31.70;12.55;;;;;;;;;;5078918;28;20029;-47
2022/02/28 09:07:20;;;;;;;27.85;12.15;;;;;;;;;;5085466;28;20127;-48
2022/02/28 09:09:46;;;;;;;34.90;12.85;;;;;;;;;;5085350;28;20055;-47
2022/02/28 09:12:12;;;;;;;27.63;11.80;;;;;;;;;;5094242;28;20051;-48
2022/02/28 09:14:38;;;;;;;27.38;11.35;;;;;;;;;;5084955;28;20107;-47
2022/02/28 09:17:05;;;;;;;29.85;12.02;;;;;;;;;;5095498;28;20115;-52
2022/02/28 09:19:31;;;;;;;30.73;12.27;;;;;;;;;;5093272;28;20029;-51
2022/02/28 09:21:57;;;;;;;29.10;12.68;;;;;;;;;;5088055;28;20025;-49
2022/02/28 09:24:23;;;;;;;28.77;11.25;;;;;;;;;;5093790;28;20043;-48
2022/02/28 09:26:49;;;;;;;26.70;11.60;;;;;;;;;;5094556;28;20035;-49
2022/02/28 09:29:15;;;;;;;27.25;11.82;;;;;;;;;;5093380;28;20471;-47
2022/02/28 09:31:42;;;;;;;29.02;12.10;;;;;;;;;;5081307;28;20492;-47
2022/02/28 09:34:08;;;;;;;31.25;11.75;;;;;;;;;;5085879;28;20085;-47
2022/02/28 09:36:33;;;;;;;27.45;12.05;;;;;;;;;;5080711;28;20033;-47
2022/02/28 09:38:59;;;;;;;26.70;12.00;;;;;;;;;;5082081;28;20024;-47
2022/02/28 09:41:26;;;;;;;25.58;11.00;;;;;;;;;;5090010;28;20028;-47
2022/02/28 09:43:53;;;;;;;26.63;11.52;;;;;;;;;;5085670;28;20452;-47
2022/02/28 09:46:19;;;;;;;26.17;10.43;;;;;;;;;;5090466;28;20024;-47
2022/02/28 09:48:46;;;;;;;30.50;10.15;;;;;;;;;;5093739;28;20035;-51
2022/02/28 09:51:13;;;;;;;26.33;10.57;;;;;;;;;;5085069;28;20060;-49
2022/02/28 09:53:39;;;;;;;24.65;10.60;;;;;;;;;;5091920;28;20125;-51
2022/02/28 09:56:05;;;;;;;33.15;12.05;;;;;;;;;;5079314;28;20025;-48
2022/02/28 09:58:31;;;;;;;21.77;9.23;;;;;;;;;;5078790;28;20063;-48
2022/02/28 10:00:57;;;;;;;22.70;9.63;;;;;;;;;;5091597;28;20028;-47
2022/02/28 10:03:24;;;;;;;22.30;10.13;;;;;;;;;;5080909;28;20035;-47
2022/02/28 10:05:51;;;;;;;24.95;11.15;;;;;;;;;;5090365;28;20024;-49
2022/02/28 10:08:17;;;;;;;22.42;10.43;;;;;;;;;;5089892;28;20403;-48
2022/02/28 10:10:45;;;;;;;22.08;10.52;;;;;;;;;;5084697;28;20025;-48
2022/02/28 10:13:11;;;;;;;24.80;10.02;;;;;;;;;;5089644;28;20036;-48
2022/02/28 10:15:37;;;;;;;23.33;9.48;;;;;;;;;;5085157;28;20468;-48
2022/02/28 10:18:04;;;;;;;22.58;9.18;;;;;;;;;;5085923;28;20067;-49
2022/02/28 10:20:32;;;;;;;21.73;9.27;;;;;;;;;;5087716;28;20482;-47
2022/02/28 10:22:59;;;;;;;20.30;8.82;;;;;;;;;;5093321;28;20020;-47
2022/02/28 10:25:28;;;;;;;21.45;8.70;;;;;;;;;;5093884;28;20107;-47
2022/02/28 10:28:13;;;;;;;19.50;8.85;;;;;;;;;;5093950;28;20028;-48
2022/02/28 10:30:39;;;;;;;22.65;9.07;;;;;;;;;;5093356;28;20032;-47
2022/02/28 10:33:10;;;;;;;21.02;9.52;;;;;;;;;;5091388;28;20075;-47
2022/02/28 10:36:01;;;;;;;22.23;9.45;;;;;;;;;;5087657;28;20480;-47
2022/02/28 10:38:31;;;;;;;22.77;8.93;;;;;;;;;;5082011;28;20460;-49
2022/02/28 10:40:58;;;;;;;19.70;8.65;;;;;;;;;;5085482;28;20869;-51
2022/02/28 10:43:31;;;;;;;18.48;8.27;;;;;;;;;;5089771;28;20054;-51
2022/02/28 10:45:58;;;;;;;16.88;8.70;;;;;;;;;;5085005;28;20024;-47
2022/02/28 10:48:25;;;;;;;16.25;7.80;;;;;;;;;;5091466;28;20042;-48
2022/02/28 10:50:51;;;;;;;19.05;8.38;;;;;;;;;;5090239;28;20035;-52
2022/02/28 10:53:19;;;;;;;16.25;8.00;;;;;;;;;;5086762;28;20493;-49
2022/02/28 10:55:46;;;;;;;14.48;7.00;;;;;;;;;;5084545;28;20372;-51
2022/02/28 10:58:17;;;;;;;13.45;6.90;;;;;;;;;;5090863;28;20024;-50
2022/02/28 11:00:56;;;;;;;15.18;6.60;;;;;;;;;;5091537;28;20036;-47
2022/02/28 11:03:23;;;;;;;12.68;5.95;;;;;;;;;;5083727;28;20111;-49
2022/02/28 11:05:50;;;;;;;14.20;6.45;;;;;;;;;;5089820;28;20038;-48
2022/02/28 11:08:20;;;;;;;13.30;6.35;;;;;;;;;;5086964;28;20040;-48
2022/02/28 11:10:46;;;;;;;14.48;6.95;;;;;;;;;;5084566;28;20035;-50
2022/02/28 11:13:13;;;;;;;14.48;6.78;;;;;;;;;;5090564;28;20032;-49
2022/02/28 11:15:40;;;;;;;17.30;6.55;;;;;;;;;;5088144;28;20035;-48
2022/02/28 11:18:07;;;;;;;13.43;6.22;;;;;;;;;;5092244;28;20028;-49
2022/02/28 11:20:33;;;;;;;13.05;6.22;;;;;;;;;;5082137;28;20024;-50
2022/02/28 11:23:04;;;;;;;12.75;5.88;;;;;;;;;;5083657;28;20035;-51
2022/02/28 11:25:30;;;;;;;14.30;6.00;;;;;;;;;;5081842;28;20028;-52
2022/02/28 11:27:58;;;;;;;14.55;6.40;;;;;;;;;;5082541;28;20027;-48
2022/02/28 11:30:25;;;;;;;13.25;6.32;;;;;;;;;;5088514;28;20020;-47
2022/02/28 11:32:55;;;;;;;11.65;6.10;;;;;;;;;;5074329;28;20042;-47
2022/02/28 11:35:39;;;;;;;12.68;5.40;;;;;;;;;;5080751;28;20112;-51
2022/02/28 11:38:27;;;;;;;9.50;4.82;;;;;;;;;;5090419;28;20078;-48
2022/02/28 11:40:53;;;;;;;12.35;5.25;;;;;;;;;;5079976;28;20491;-50
2022/02/28 11:43:22;;;;;;;11.43;5.05;;;;;;;;;;5083410;28;20021;-52
2022/02/28 11:45:54;;;;;;;11.13;5.03;;;;;;;;;;5084245;28;20740;-49
2022/02/28 11:48:23;;;;;;;9.57;4.47;;;;;;;;;;5087611;28;20099;-48
2022/02/28 11:50:55;;;;;;;9.63;4.50;;;;;;;;;;5087287;28;20028;-49
2022/02/28 11:53:34;;;;;;;8.32;4.10;;;;;;;;;;5080988;28;20408;-50
2022/02/28 11:56:00;;;;;;;10.25;5.18;;;;;;;;;;5087540;28;20046;-48
2022/02/28 11:58:27;;;;;;;12.52;5.10;;;;;;;;;;5089899;28;20047;-47
2022/02/28 12:01:10;;;;;;;9.43;4.03;;;;;;;;;;5089849;28;20047;-51
2022/02/28 12:03:36;;;;;;;12.90;4.97;;;;;;;;;;5090831;28;20031;-50
2022/02/28 12:06:05;;;;;;;9.70;3.85;;;;;;;;;;5082123;28;20506;-48
2022/02/28 12:08:36;;;;;;;8.15;3.88;;;;;;;;;;5085418;28;20495;-48
2022/02/28 12:11:22;;;;;;;9.23;3.85;;;;;;;;;;5090847;28;20020;-54
2022/02/28 12:14:07;;;;;;;7.78;3.42;;;;;;;;;;5090802;28;20034;-48
2022/02/28 12:19:28;;;;;;;7.45;3.92;;;;;;;;;;5088320;28;20085;-48
2022/02/28 12:21:58;;;;;;;7.45;3.67;;;;;;;;;;5091046;28;20119;-50
2022/02/28 12:24:43;;;;;;;8.02;3.85;;;;;;;;;;5091461;28;20031;-48
2022/02/28 12:27:12;;;;;;;8.50;4.28;;;;;;;;;;5084122;28;20028;-50
2022/02/28 12:29:38;;;;;;;8.00;4.00;;;;;;;;;;5089376;28;20406;-46
2022/02/28 12:32:04;;;;;;;6.80;3.72;;;;;;;;;;5089137;28;20036;-46
2022/02/28 12:34:34;;;;;;;9.48;4.35;;;;;;;;;;5088335;28;20086;-47
2022/02/28 12:37:01;;;;;;;10.35;4.78;;;;;;;;;;5091611;28;20103;-47
2022/02/28 12:39:27;;;;;;;8.63;4.57;;;;;;;;;;5088105;28;20028;-48
2022/02/28 12:41:56;;;;;;;8.02;4.18;;;;;;;;;;5088568;28;20063;-46
2022/02/28 12:44:22;;;;;;;9.23;4.07;;;;;;;;;;5084996;28;20063;-51
2022/02/28 12:46:53;;;;;;;9.35;4.10;;;;;;;;;;5087207;28;20039;-52
2022/02/28 12:49:20;;;;;;;8.45;3.95;;;;;;;;;;5090285;28;20081;-49
2022/02/28 12:51:48;;;;;;;10.38;4.32;;;;;;;;;;5086809;28;20048;-51
2022/02/28 12:54:15;;;;;;;5.95;3.42;;;;;;;;;;5083677;28;20643;-51
2022/02/28 12:56:43;;;;;;;6.53;3.70;;;;;;;;;;5095435;28;20081;-49
2022/02/28 12:59:09;;;;;;;7.10;3.63;;;;;;;;;;5077832;28;20039;-46
2022/02/28 13:01:35;;;;;;;7.85;3.78;;;;;;;;;;5084803;28;20104;-47
2022/02/28 13:04:03;;;;;;;4.63;2.65;;;;;;;;;;5091396;28;20091;-47
2022/02/28 13:06:30;;;;;;;5.45;3.33;;;;;;;;;;5095656;28;20027;-46
2022/02/28 13:09:00;;;;;;;7.68;3.50;;;;;;;;;;5095338;28;20024;-47
2022/02/28 13:11:26;;;;;;;7.15;3.40;;;;;;;;;;5095316;28;20085;-46
2022/02/28 13:13:54;;;;;;;5.18;2.97;;;;;;;;;;5095379;28;20035;-47
2022/02/28 13:16:20;;;;;;;7.28;3.65;;;;;;;;;;5092173;28;20035;-46
2022/02/28 13:18:46;;;;;;;5.07;2.70;;;;;;;;;;5088836;28;20066;-46
2022/02/28 13:21:12;;;;;;;7.32;3.22;;;;;;;;;;5087973;28;20875;-46
2022/02/28 13:23:41;;;;;;;6.28;3.00;;;;;;;;;;5086906;28;20744;-52
2022/02/28 13:26:07;;;;;;;4.63;2.40;;;;;;;;;;5079394;28;20460;-51
2022/02/28 13:28:33;;;;;;;7.28;3.25;;;;;;;;;;5081515;28;20023;-48
2022/02/28 13:31:00;;;;;;;10.02;4.03;;;;;;;;;;5091199;28;20535;-51
2022/02/28 13:33:30;;;;;;;7.28;3.35;;;;;;;;;;5090645;28;20388;-49
2022/02/28 13:35:56;;;;;;;6.03;3.05;;;;;;;;;;5091315;28;20039;-49
2022/02/28 13:38:23;;;;;;;11.93;4.20;;;;;;;;;;5097183;28;20031;-46
2022/02/28 13:40:49;;;;;;;9.25;4.18;;;;;;;;;;5078802;28;20032;-52
2022/02/28 13:43:15;;;;;;;8.82;4.00;;;;;;;;;;5083785;28;20539;-47
2022/02/28 13:45:42;;;;;;;7.65;3.90;;;;;;;;;;5085813;28;20438;-51
2022/02/28 13:48:14;;;;;;;7.43;4.03;;;;;;;;;;5091394;28;20024;-47
2022/02/28 13:50:43;;;;;;;8.98;3.55;;;;;;;;;;5079071;28;20093;-49
2022/02/28 13:53:08;;;;;;;6.65;3.50;;;;;;;;;;5078363;28;20059;-52
2022/02/28 13:55:34;;;;;;;9.63;4.30;;;;;;;;;;5087881;28;20460;-48
2022/02/28 13:58:02;;;;;;;6.55;3.42;;;;;;;;;;5082814;28;20032;-48
2022/02/28 14:00:28;;;;;;;5.95;3.55;;;;;;;;;;5087036;28;20028;-49
2022/02/28 14:02:57;;;;;;;8.27;4.13;;;;;;;;;;5086416;28;20020;-49
2022/02/28 14:05:25;;;;;;;8.45;3.83;;;;;;;;;;5094146;28;20472;-50
2022/02/28 14:07:55;;;;;;;10.05;4.18;;;;;;;;;;5085968;28;20039;-50
2022/02/28 14:10:25;;;;;;;8.43;4.35;;;;;;;;;;5081745;28;20029;-49
2022/02/28 14:12:51;;;;;;;12.07;4.90;;;;;;;;;;5090889;28;20024;-50
2022/02/28 14:15:22;;;;;;;10.80;4.65;;;;;;;;;;5081905;28;20101;-48
2022/02/28 14:17:58;;;;;;;11.18;4.65;;;;;;;;;;5089625;28;20525;-49
2022/02/28 14:20:25;;;;;;;8.38;4.53;;;;;;;;;;5077031;28;20368;-48
2022/02/28 14:23:08;;;;;;;7.40;3.85;;;;;;;;;;5084271;28;20115;-47
2022/02/28 14:25:34;;;;;;;7.20;3.63;;;;;;;;;;5090467;28;20020;-49
2022/02/28 14:28:03;;;;;;;7.78;3.65;;;;;;;;;;5090641;28;20394;-51